createdAt,value
2023-04-18T00:01:57.524Z,6.73
2023-04-18T00:07:01.244Z,6.63
2023-04-18T00:12:05.274Z,6.52
2023-04-18T00:17:09.137Z,6.44
2023-04-18T00:22:13.534Z,6.36
2023-04-18T00:27:18.794Z,6.31
2023-04-18T00:32:21.914Z,6.28
2023-04-18T00:37:25.007Z,6.24
2023-04-18T00:42:29.650Z,6.18
2023-04-18T00:47:32.832Z,6.16
2023-04-18T00:52:37.187Z,6.13
2023-04-18T00:57:41.519Z,6.11
2023-04-18T01:02:44.721Z,6.08
2023-04-18T01:07:48.552Z,6.06
2023-04-18T01:13:10.091Z,6.03
2023-04-18T01:18:13.913Z,6.05
2023-04-18T01:23:18.454Z,6.09
2023-04-18T01:28:23.004Z,6.09
2023-04-18T01:33:26.099Z,6.09
2023-04-18T01:38:29.093Z,6.11
2023-04-18T01:43:32.203Z,6.13
2023-04-18T01:48:35.449Z,6.19
2023-04-18T01:53:38.517Z,6.24
2023-04-18T01:58:41.929Z,6.29
2023-04-18T02:03:45.182Z,6.31
2023-04-18T02:08:48.661Z,6.32
2023-04-18T02:13:52.501Z,6.36
2023-04-18T02:18:55.688Z,6.41
2023-04-18T02:23:58.898Z,6.42
2023-04-18T02:29:02.252Z,6.44
2023-04-18T02:34:05.612Z,6.43
2023-04-18T02:39:08.520Z,6.43
2023-04-18T02:44:12.064Z,6.45
2023-04-18T02:49:15.362Z,6.48
2023-04-18T02:54:18.347Z,6.48
2023-04-18T02:59:21.548Z,6.50
2023-04-18T03:04:24.979Z,6.51
2023-04-18T03:09:28.273Z,6.52
2023-04-18T03:14:31.173Z,6.51
2023-04-18T03:19:34.584Z,6.51
2023-04-18T03:24:37.588Z,6.50
2023-04-18T03:29:40.697Z,6.51
2023-04-18T03:34:43.694Z,6.50
2023-04-18T03:39:47.021Z,6.50
2023-04-18T03:44:50.144Z,6.48
2023-04-18T03:49:54.655Z,6.48
2023-04-18T03:54:57.617Z,6.51
2023-04-18T04:00:01.166Z,6.54
2023-04-18T04:05:05.807Z,6.58
2023-04-18T04:10:09.790Z,6.64
2023-04-18T04:15:13.494Z,6.76
2023-04-18T04:20:23.167Z,7.02
2023-04-18T04:25:29.821Z,7.81
2023-04-18T04:30:33.855Z,8.58
2023-04-18T04:35:37.044Z,8.78
2023-04-18T04:40:40.351Z,8.57
2023-04-18T04:45:43.984Z,8.48
2023-04-18T04:50:58.033Z,8.46
2023-04-18T04:56:01.241Z,8.41
2023-04-18T05:01:04.404Z,8.43
2023-04-18T05:06:07.858Z,8.59
2023-04-18T05:11:11.171Z,8.76
2023-04-18T05:16:14.517Z,8.86
2023-04-18T05:21:18.301Z,8.75
2023-04-18T05:26:22.225Z,8.71
2023-04-18T05:31:26.096Z,8.72
2023-04-18T05:36:29.560Z,8.67
2023-04-18T05:41:32.774Z,8.36
2023-04-18T05:46:36.282Z,8.15
2023-04-18T05:51:39.390Z,8.17
2023-04-18T05:56:42.807Z,8.36
2023-04-18T06:01:46.219Z,8.78
2023-04-18T06:06:49.630Z,9.50
2023-04-18T06:11:52.637Z,10.17
2023-04-18T06:16:56.048Z,10.75
2023-04-18T06:21:59.162Z,12.24
2023-04-18T06:27:02.261Z,14.58
2023-04-18T06:32:06.254Z,15.84
2023-04-18T06:37:09.392Z,18.16
2023-04-18T06:42:12.492Z,20.62
2023-04-18T06:47:16.012Z,22.78
2023-04-18T06:52:19.124Z,24.09
2023-04-18T06:57:22.750Z,24.92
2023-04-18T07:02:26.142Z,25.78
2023-04-18T07:07:30.147Z,26.45
2023-04-18T07:12:34.001Z,26.27
2023-04-18T07:17:37.430Z,26.62
2023-04-18T07:22:41.754Z,26.56
2023-04-18T07:27:45.079Z,27.39
2023-04-18T07:32:48.398Z,27.63
2023-04-18T07:37:54.230Z,26.52
2023-04-18T07:42:57.545Z,25.57
2023-04-18T07:48:02.148Z,26.23
2023-04-18T07:53:05.803Z,27.37
2023-04-18T07:58:09.724Z,27.89
2023-04-18T08:03:13.732Z,27.29
2023-04-18T08:08:17.601Z,27.78
2023-04-18T08:13:20.785Z,27.99
2023-04-18T08:18:24.097Z,27.62
2023-04-18T08:23:27.415Z,27.67
2023-04-18T08:28:30.510Z,28.17
2023-04-18T08:33:33.560Z,26.88
2023-04-18T08:38:37.130Z,24.19
2023-04-18T08:43:40.238Z,24.93
2023-04-18T08:48:43.348Z,26.60
2023-04-18T08:53:48.654Z,27.10
2023-04-18T08:58:52.521Z,27.91
2023-04-18T09:03:55.761Z,27.82
2023-04-18T09:08:59.281Z,28.17
2023-04-18T09:14:02.776Z,27.86
2023-04-18T09:19:11.330Z,27.42
2023-04-18T09:24:29.666Z,26.76
2023-04-18T09:29:49.515Z,26.25
2023-04-18T09:34:58.485Z,26.25
2023-04-18T09:40:18.136Z,26.53
2023-04-18T09:45:22.740Z,25.86
2023-04-18T09:50:25.861Z,25.52
2023-04-18T09:55:31.347Z,24.93
2023-04-18T10:00:37.019Z,24.82
2023-04-18T10:05:41.949Z,24.14
2023-04-18T10:10:47.226Z,22.44
2023-04-18T10:15:52.747Z,21.26
2023-04-18T10:21:05.664Z,20.90
2023-04-18T10:26:10.684Z,20.14
2023-04-18T10:31:16.934Z,19.18
2023-04-18T10:36:21.024Z,18.79
2023-04-18T10:41:31.517Z,18.68
2023-04-18T10:46:36.521Z,18.58
2023-04-18T10:51:40.280Z,18.64
2023-04-18T10:56:53.019Z,18.62
2023-04-18T11:01:57.384Z,18.77
2023-04-18T11:07:00.653Z,19.18
2023-04-18T11:12:11.761Z,19.14
2023-04-18T11:17:23.941Z,19.39
2023-04-18T11:22:27.377Z,19.25
2023-04-18T11:27:30.814Z,18.52
2023-04-18T11:32:35.807Z,18.07
2023-04-18T11:37:40.170Z,18.08
2023-04-18T11:42:43.690Z,18.16
2023-04-18T11:47:47.181Z,18.45
2023-04-18T11:52:51.994Z,18.59
2023-04-18T11:58:00.708Z,18.34
2023-04-18T12:03:06.100Z,18.11
2023-04-18T12:08:12.106Z,18.02
2023-04-18T12:13:15.742Z,17.78
2023-04-18T12:18:22.120Z,17.80
2023-04-18T12:23:40.475Z,18.03
2023-04-18T12:28:46.042Z,18.13
2023-04-18T12:33:50.780Z,17.97
2023-04-18T12:38:53.793Z,17.77
2023-04-18T12:43:57.310Z,17.75
2023-04-18T12:49:00.622Z,17.78
2023-04-18T12:54:04.439Z,17.55
2023-04-18T12:59:08.770Z,17.51
2023-04-18T13:04:13.252Z,17.73
2023-04-18T13:09:17.647Z,17.96
2023-04-18T13:14:21.487Z,17.75
2023-04-18T13:19:24.889Z,17.26
2023-04-18T13:24:28.396Z,16.93
2023-04-18T13:29:32.234Z,16.53
2023-04-18T13:34:39.913Z,16.30
2023-04-18T13:39:43.453Z,16.17
2023-04-18T13:44:47.518Z,16.03
2023-04-18T13:49:50.791Z,15.88
2023-04-18T13:54:54.107Z,15.70
2023-04-18T13:59:57.511Z,15.47
2023-04-18T14:05:01.393Z,15.18
2023-04-18T14:10:06.580Z,15.11
2023-04-18T14:15:31.022Z,15.10
2023-04-18T14:20:37.483Z,15.29
2023-04-18T14:25:40.995Z,15.48
2023-04-18T14:30:44.803Z,15.64
2023-04-18T14:35:47.854Z,15.71
2023-04-18T14:40:51.353Z,15.53
2023-04-18T14:45:54.443Z,15.07
2023-04-18T14:50:59.343Z,14.59
2023-04-18T14:56:02.494Z,14.30
2023-04-18T15:01:06.023Z,14.12
2023-04-18T15:06:09.385Z,14.00
2023-04-18T15:11:12.833Z,13.87
2023-04-18T15:16:17.083Z,13.73
2023-04-18T15:21:20.586Z,13.59
2023-04-18T15:26:24.409Z,13.44
2023-04-18T15:31:28.259Z,13.30
2023-04-18T15:36:35.778Z,13.14
2023-04-18T15:41:39.879Z,13.01
2023-04-18T15:46:43.804Z,12.96
2023-04-18T15:51:47.622Z,12.92
2023-04-18T15:56:52.088Z,12.90
2023-04-18T16:01:55.790Z,12.88
2023-04-18T16:06:59.633Z,12.88
2023-04-18T16:12:04.904Z,12.85
2023-04-18T16:17:08.276Z,12.79
2023-04-18T16:22:12.901Z,12.76
2023-04-18T16:27:17.328Z,12.75
2023-04-18T16:32:20.960Z,12.74
2023-04-18T16:37:24.169Z,12.73
2023-04-18T16:42:27.789Z,12.70
2023-04-18T16:47:31.241Z,12.65
2023-04-18T16:52:34.919Z,12.60
2023-04-18T16:57:38.230Z,12.53
2023-04-18T17:02:43.589Z,12.46
2023-04-18T17:07:50.078Z,12.42
2023-04-18T17:12:53.858Z,12.34
2023-04-18T17:18:00.579Z,12.28
2023-04-18T17:23:04.825Z,12.21
2023-04-18T17:28:08.155Z,12.15
2023-04-18T17:33:11.847Z,12.08
2023-04-18T17:38:15.769Z,11.96
2023-04-18T17:43:19.794Z,11.85
2023-04-18T17:48:23.225Z,11.71
2023-04-18T17:53:27.168Z,11.55
2023-04-18T17:58:30.654Z,11.42
2023-04-18T18:03:33.930Z,11.28
2023-04-18T18:08:37.375Z,11.15
2023-04-18T18:13:40.377Z,11.02
2023-04-18T18:18:44.305Z,10.89
2023-04-18T18:23:48.659Z,10.76
2023-04-18T18:28:52.869Z,10.63
2023-04-18T18:33:56.280Z,10.50
2023-04-18T18:39:00.106Z,10.40
2023-04-18T18:44:03.929Z,10.32
2023-04-18T18:49:08.877Z,10.22
2023-04-18T18:54:13.521Z,10.11
2023-04-18T18:59:17.904Z,9.99
2023-04-18T19:04:22.106Z,9.91
2023-04-18T19:09:26.024Z,9.85
2023-04-18T19:14:30.263Z,9.83
2023-04-18T19:19:34.560Z,9.79
2023-04-18T19:24:37.901Z,9.69
2023-04-18T19:29:41.721Z,9.56
2023-04-18T19:34:46.559Z,9.41
2023-04-18T19:39:51.659Z,9.25
2023-04-18T19:44:56.862Z,9.04
2023-04-18T19:50:01.682Z,8.85
2023-04-18T19:55:11.325Z,8.66
2023-04-18T20:00:17.535Z,8.45
2023-04-18T20:05:21.986Z,8.24
2023-04-18T20:10:25.521Z,8.02
2023-04-18T20:15:30.635Z,7.79
2023-04-18T20:20:34.174Z,7.55
2023-04-18T20:25:37.550Z,7.34
2023-04-18T20:30:41.337Z,7.16
2023-04-18T20:35:45.012Z,7.00
2023-04-18T20:40:49.262Z,6.87
2023-04-18T20:45:54.062Z,6.75
2023-04-18T20:50:57.298Z,6.64
2023-04-18T20:56:03.247Z,6.52
2023-04-18T21:01:07.270Z,6.38
2023-04-18T21:06:11.037Z,6.26
2023-04-18T21:11:14.740Z,6.15
2023-04-18T21:16:18.399Z,6.07
2023-04-18T21:21:21.795Z,5.97
2023-04-18T21:26:25.184Z,5.89
2023-04-18T21:31:29.812Z,5.82
2023-04-18T21:36:33.148Z,5.79
2023-04-18T21:41:36.138Z,5.78
2023-04-18T21:46:39.969Z,5.78
2023-04-18T21:51:43.685Z,5.77
2023-04-18T21:56:47.298Z,5.71
2023-04-18T22:01:51.015Z,5.60
2023-04-18T22:06:54.695Z,5.46
2023-04-18T22:11:58.061Z,5.31
2023-04-18T22:17:05.042Z,5.17
2023-04-18T22:22:08.269Z,5.07
2023-04-18T22:27:11.668Z,5.02
2023-04-18T22:32:14.671Z,5.02
2023-04-18T22:37:17.993Z,5.00
2023-04-18T22:42:21.392Z,4.96
2023-04-18T22:47:24.460Z,4.89
2023-04-18T22:52:27.814Z,4.84
2023-04-18T22:57:31.536Z,4.79
2023-04-18T23:02:35.012Z,4.78
2023-04-18T23:07:38.467Z,4.76
2023-04-18T23:12:41.670Z,4.77
2023-04-18T23:17:44.884Z,4.77
2023-04-18T23:22:51.998Z,4.79
2023-04-18T23:27:55.285Z,4.79
2023-04-18T23:32:58.438Z,4.80
2023-04-18T23:38:01.613Z,4.80
2023-04-18T23:43:04.922Z,4.77
2023-04-18T23:48:08.334Z,4.74
2023-04-18T23:53:11.327Z,4.68
2023-04-18T23:58:15.149Z,4.63
